sensor_id;sensor_type;location;lat;lon;timestamp;pressure;altitude;pressure_sealevel;temperature;humidity
64711;BME280;51139;45.626;6.850;2023-05-19T00:01:55;81997.03;;;4.84;100.00
64711;BME280;51139;45.626;6.850;2023-05-19T00:04:20;81994.09;;;4.87;100.00
64711;BME280;51139;45.626;6.850;2023-05-19T00:06:49;81988.94;;;5.18;100.00
64711;BME280;51139;45.626;6.850;2023-05-19T00:09:15;81992.88;;;5.48;100.00
64711;BME280;51139;45.626;6.850;2023-05-19T00:11:41;81987.56;;;5.33;100.00
64711;BME280;51139;45.626;6.850;2023-05-19T00:14:07;81984.13;;;4.93;100.00
64711;BME280;51139;45.626;6.850;2023-05-19T00:16:34;81977.69;;;4.65;100.00
64711;BME280;51139;45.626;6.850;2023-05-19T00:19:03;81984.53;;;4.68;100.00
64711;BME280;51139;45.626;6.850;2023-05-19T00:21:28;81977.41;;;4.77;100.00
64711;BME280;51139;45.626;6.850;2023-05-19T00:23:55;81978.91;;;4.64;100.00
64711;BME280;51139;45.626;6.850;2023-05-19T00:26:22;81980.44;;;4.89;100.00
64711;BME280;51139;45.626;6.850;2023-05-19T00:28:51;81975.59;;;5.08;100.00
64711;BME280;51139;45.626;6.850;2023-05-19T00:31:17;81967.22;;;5.18;100.00
64711;BME280;51139;45.626;6.850;2023-05-19T00:33:42;81967.56;;;5.14;100.00
64711;BME280;51139;45.626;6.850;2023-05-19T00:36:08;81975.63;;;4.72;100.00
64711;BME280;51139;45.626;6.850;2023-05-19T00:38:35;81967.03;;;4.63;100.00
64711;BME280;51139;45.626;6.850;2023-05-19T00:41:01;81971.88;;;4.88;100.00
64711;BME280;51139;45.626;6.850;2023-05-19T00:43:27;81971.88;;;4.88;100.00
64711;BME280;51139;45.626;6.850;2023-05-19T00:45:54;81964.22;;;5.06;100.00
64711;BME280;51139;45.626;6.850;2023-05-19T00:48:19;81964.84;;;5.51;100.00
64711;BME280;51139;45.626;6.850;2023-05-19T00:50:45;81958.56;;;5.69;100.00
64711;BME280;51139;45.626;6.850;2023-05-19T00:53:13;81965.03;;;5.61;100.00
64711;BME280;51139;45.626;6.850;2023-05-19T00:55:38;81956.63;;;5.54;100.00
64711;BME280;51139;45.626;6.850;2023-05-19T00:58:06;81960.06;;;5.26;100.00
64711;BME280;51139;45.626;6.850;2023-05-19T01:00:33;81964.06;;;5.11;100.00
64711;BME280;51139;45.626;6.850;2023-05-19T01:02:59;81961.59;;;5.06;100.00
64711;BME280;51139;45.626;6.850;2023-05-19T01:05:24;81962.41;;;5.61;100.00
64711;BME280;51139;45.626;6.850;2023-05-19T01:07:50;81958.91;;;5.43;100.00
64711;BME280;51139;45.626;6.850;2023-05-19T01:10:18;81953.00;;;6.04;100.00
64711;BME280;51139;45.626;6.850;2023-05-19T01:12:44;81955.72;;;5.44;100.00
64711;BME280;51139;45.626;6.850;2023-05-19T01:15:10;81946.13;;;5.47;100.00
64711;BME280;51139;45.626;6.850;2023-05-19T01:17:46;81953.56;;;5.19;100.00
64711;BME280;51139;45.626;6.850;2023-05-19T01:20:24;81950.50;;;5.67;100.00
64711;BME280;51139;45.626;6.850;2023-05-19T01:28:30;81946.88;;;6.02;100.00
64711;BME280;51139;45.626;6.850;2023-05-19T01:30:59;81942.13;;;6.08;100.00
64711;BME280;51139;45.626;6.850;2023-05-19T01:33:27;81942.44;;;5.58;100.00
64711;BME280;51139;45.626;6.850;2023-05-19T01:35:54;81940.94;;;5.10;100.00
64711;BME280;51139;45.626;6.850;2023-05-19T01:38:20;81937.19;;;5.50;100.00
64711;BME280;51139;45.626;6.850;2023-05-19T01:40:48;81935.28;;;5.81;100.00
64711;BME280;51139;45.626;6.850;2023-05-19T01:43:20;81931.97;;;6.04;100.00
64711;BME280;51139;45.626;6.850;2023-05-19T01:45:46;81936.53;;;6.19;100.00
64711;BME280;51139;45.626;6.850;2023-05-19T01:48:13;81932.47;;;6.18;100.00
64711;BME280;51139;45.626;6.850;2023-05-19T01:50:40;81935.63;;;6.09;100.00
64711;BME280;51139;45.626;6.850;2023-05-19T01:53:05;81937.38;;;6.14;100.00
64711;BME280;51139;45.626;6.850;2023-05-19T01:55:31;81938.75;;;5.37;100.00
64711;BME280;51139;45.626;6.850;2023-05-19T01:58:16;81934.56;;;5.50;100.00
64711;BME280;51139;45.626;6.850;2023-05-19T02:06:48;81943.50;;;4.87;100.00
64711;BME280;51139;45.626;6.850;2023-05-19T02:09:39;81935.97;;;5.51;100.00
64711;BME280;51139;45.626;6.850;2023-05-19T02:14:54;81929.78;;;5.33;100.00
64711;BME280;51139;45.626;6.850;2023-05-19T02:17:23;81924.75;;;5.58;100.00
64711;BME280;51139;45.626;6.850;2023-05-19T02:19:51;81929.41;;;5.13;100.00
64711;BME280;51139;45.626;6.850;2023-05-19T02:22:16;81925.75;;;5.24;100.00
64711;BME280;51139;45.626;6.850;2023-05-19T02:24:42;81923.88;;;5.63;100.00
64711;BME280;51139;45.626;6.850;2023-05-19T02:27:09;81911.38;;;5.25;100.00
64711;BME280;51139;45.626;6.850;2023-05-19T02:29:34;81917.56;;;5.51;100.00
64711;BME280;51139;45.626;6.850;2023-05-19T02:32:00;81916.81;;;5.27;100.00
64711;BME280;51139;45.626;6.850;2023-05-19T02:34:26;81916.50;;;5.46;100.00
64711;BME280;51139;45.626;6.850;2023-05-19T02:36:51;81910.03;;;5.55;100.00
64711;BME280;51139;45.626;6.850;2023-05-19T02:39:17;81906.34;;;5.35;100.00
64711;BME280;51139;45.626;6.850;2023-05-19T02:41:42;81905.66;;;5.58;100.00
64711;BME280;51139;45.626;6.850;2023-05-19T02:44:07;81911.75;;;5.29;100.00
64711;BME280;51139;45.626;6.850;2023-05-19T02:46:33;81912.31;;;5.35;100.00
64711;BME280;51139;45.626;6.850;2023-05-19T02:48:58;81908.25;;;5.26;100.00
64711;BME280;51139;45.626;6.850;2023-05-19T02:51:24;81898.06;;;5.23;100.00
64711;BME280;51139;45.626;6.850;2023-05-19T02:53:49;81903.03;;;5.89;100.00
64711;BME280;51139;45.626;6.850;2023-05-19T02:56:15;81904.75;;;5.47;100.00
64711;BME280;51139;45.626;6.850;2023-05-19T02:58:40;81899.72;;;5.57;100.00
64711;BME280;51139;45.626;6.850;2023-05-19T03:01:07;81901.63;;;5.57;100.00
64711;BME280;51139;45.626;6.850;2023-05-19T03:03:33;81902.13;;;5.32;100.00
64711;BME280;51139;45.626;6.850;2023-05-19T03:05:58;81890.88;;;5.16;100.00
64711;BME280;51139;45.626;6.850;2023-05-19T03:08:24;81903.69;;;5.27;100.00
64711;BME280;51139;45.626;6.850;2023-05-19T03:10:49;81892.50;;;5.42;100.00
64711;BME280;51139;45.626;6.850;2023-05-19T03:13:15;81892.50;;;5.26;100.00
64711;BME280;51139;45.626;6.850;2023-05-19T03:15:41;81889.72;;;5.71;100.00
64711;BME280;51139;45.626;6.850;2023-05-19T03:18:07;81887.25;;;5.73;100.00
64711;BME280;51139;45.626;6.850;2023-05-19T03:20:32;81892.50;;;5.81;100.00
64711;BME280;51139;45.626;6.850;2023-05-19T03:22:58;81891.44;;;6.15;100.00
64711;BME280;51139;45.626;6.850;2023-05-19T03:25:24;81892.69;;;5.91;100.00
64711;BME280;51139;45.626;6.850;2023-05-19T03:27:50;81896.81;;;5.01;100.00
64711;BME280;51139;45.626;6.850;2023-05-19T03:30:15;81897.03;;;4.58;100.00
64711;BME280;51139;45.626;6.850;2023-05-19T03:32:41;81901.81;;;5.51;100.00
64711;BME280;51139;45.626;6.850;2023-05-19T03:35:06;81900.75;;;5.54;100.00
64711;BME280;51139;45.626;6.850;2023-05-19T03:37:32;81899.00;;;5.64;100.00
64711;BME280;51139;45.626;6.850;2023-05-19T03:40:00;81903.84;;;5.06;100.00
64711;BME280;51139;45.626;6.850;2023-05-19T03:42:25;81905.09;;;5.20;100.00
64711;BME280;51139;45.626;6.850;2023-05-19T03:44:51;81908.25;;;4.66;100.00
64711;BME280;51139;45.626;6.850;2023-05-19T03:47:16;81917.75;;;4.85;100.00
64711;BME280;51139;45.626;6.850;2023-05-19T03:49:42;81913.97;;;5.02;100.00
64711;BME280;51139;45.626;6.850;2023-05-19T03:52:07;81912.41;;;4.99;100.00
64711;BME280;51139;45.626;6.850;2023-05-19T03:54:34;81916.75;;;4.88;100.00
64711;BME280;51139;45.626;6.850;2023-05-19T03:57:00;81915.88;;;4.49;100.00
64711;BME280;51139;45.626;6.850;2023-05-19T03:59:25;81926.47;;;4.72;100.00
64711;BME280;51139;45.626;6.850;2023-05-19T04:01:50;81921.84;;;5.02;100.00
64711;BME280;51139;45.626;6.850;2023-05-19T04:04:16;81922.03;;;5.04;100.00
64711;BME280;51139;45.626;6.850;2023-05-19T04:06:42;81925.88;;;5.10;100.00
64711;BME280;51139;45.626;6.850;2023-05-19T04:09:12;81921.53;;;5.13;100.00
64711;BME280;51139;45.626;6.850;2023-05-19T04:11:37;81920.47;;;4.19;100.00
64711;BME280;51139;45.626;6.850;2023-05-19T04:14:04;81923.28;;;3.92;100.00
64711;BME280;51139;45.626;6.850;2023-05-19T04:16:29;81937.03;;;3.85;100.00
64711;BME280;51139;45.626;6.850;2023-05-19T04:18:54;81935.03;;;4.73;100.00
64711;BME280;51139;45.626;6.850;2023-05-19T04:21:21;81934.69;;;4.68;100.00
64711;BME280;51139;45.626;6.850;2023-05-19T04:23:46;81940.56;;;4.98;100.00
64711;BME280;51139;45.626;6.850;2023-05-19T04:26:12;81936.53;;;3.87;100.00
64711;BME280;51139;45.626;6.850;2023-05-19T04:28:39;81951.66;;;3.52;100.00
64711;BME280;51139;45.626;6.850;2023-05-19T04:31:06;81951.03;;;3.88;100.00
64711;BME280;51139;45.626;6.850;2023-05-19T04:33:35;81947.69;;;4.08;100.00
64711;BME280;51139;45.626;6.850;2023-05-19T04:36:01;81951.25;;;4.56;100.00
64711;BME280;51139;45.626;6.850;2023-05-19T04:38:29;81952.97;;;3.66;100.00
64711;BME280;51139;45.626;6.850;2023-05-19T04:40:55;81944.47;;;3.73;100.00
64711;BME280;51139;45.626;6.850;2023-05-19T04:43:20;81949.31;;;3.90;100.00
64711;BME280;51139;45.626;6.850;2023-05-19T04:45:46;81952.84;;;3.29;100.00
64711;BME280;51139;45.626;6.850;2023-05-19T04:48:14;81944.16;;;3.13;100.00
64711;BME280;51139;45.626;6.850;2023-05-19T04:50:39;81951.69;;;3.17;100.00
64711;BME280;51139;45.626;6.850;2023-05-19T06:32:00;81976.94;;;4.20;100.00
64711;BME280;51139;45.626;6.850;2023-05-19T06:34:25;81979.84;;;4.75;100.00
64711;BME280;51139;45.626;6.850;2023-05-19T06:36:51;81973.22;;;4.81;100.00
64711;BME280;51139;45.626;6.850;2023-05-19T06:39:16;81954.19;;;4.89;100.00
64711;BME280;51139;45.626;6.850;2023-05-19T06:41:41;81938.50;;;5.12;100.00
64711;BME280;51139;45.626;6.850;2023-05-19T06:44:07;81946.13;;;4.87;100.00
64711;BME280;51139;45.626;6.850;2023-05-19T06:46:35;81946.22;;;5.10;100.00
64711;BME280;51139;45.626;6.850;2023-05-19T06:49:00;81939.25;;;4.76;100.00
64711;BME280;51139;45.626;6.850;2023-05-19T06:51:26;81930.88;;;5.45;100.00
64711;BME280;51139;45.626;6.850;2023-05-19T06:53:51;81934.53;;;5.34;100.00
64711;BME280;51139;45.626;6.850;2023-05-19T06:56:17;81931.25;;;5.96;100.00
64711;BME280;51139;45.626;6.850;2023-05-19T06:58:43;81932.50;;;6.03;100.00
64711;BME280;51139;45.626;6.850;2023-05-19T07:01:09;81931.03;;;5.39;100.00
64711;BME280;51139;45.626;6.850;2023-05-19T07:03:34;81937.69;;;5.33;100.00
64711;BME280;51139;45.626;6.850;2023-05-19T07:06:00;81936.78;;;5.22;100.00
64711;BME280;51139;45.626;6.850;2023-05-19T07:08:25;81923.34;;;5.65;100.00
64711;BME280;51139;45.626;6.850;2023-05-19T07:10:52;81927.03;;;5.85;100.00
64711;BME280;51139;45.626;6.850;2023-05-19T07:13:17;81925.13;;;5.86;100.00
64711;BME280;51139;45.626;6.850;2023-05-19T07:15:42;81928.47;;;6.02;100.00
64711;BME280;51139;45.626;6.850;2023-05-19T07:18:08;81934.75;;;5.75;100.00
64711;BME280;51139;45.626;6.850;2023-05-19T07:20:33;81943.84;;;5.74;100.00
64711;BME280;51139;45.626;6.850;2023-05-19T07:22:59;81946.31;;;5.80;100.00
64711;BME280;51139;45.626;6.850;2023-05-19T07:25:26;81949.94;;;5.38;100.00
64711;BME280;51139;45.626;6.850;2023-05-19T07:27:54;81952.63;;;6.00;100.00
64711;BME280;51139;45.626;6.850;2023-05-19T07:30:20;81950.56;;;6.06;100.00
64711;BME280;51139;45.626;6.850;2023-05-19T07:32:45;81939.66;;;5.87;100.00
64711;BME280;51139;45.626;6.850;2023-05-19T07:35:10;81940.72;;;6.22;100.00
64711;BME280;51139;45.626;6.850;2023-05-19T07:37:36;81942.13;;;6.31;100.00
64711;BME280;51139;45.626;6.850;2023-05-19T07:40:02;81936.84;;;5.92;100.00
64711;BME280;51139;45.626;6.850;2023-05-19T07:42:28;81932.19;;;6.78;100.00
64711;BME280;51139;45.626;6.850;2023-05-19T07:44:53;81938.28;;;6.24;100.00
64711;BME280;51139;45.626;6.850;2023-05-19T07:47:19;81946.34;;;6.26;100.00
64711;BME280;51139;45.626;6.850;2023-05-19T07:49:44;81921.69;;;6.70;100.00
64711;BME280;51139;45.626;6.850;2023-05-19T07:52:10;81932.44;;;7.13;100.00
64711;BME280;51139;45.626;6.850;2023-05-19T07:54:35;81948.06;;;6.47;100.00
64711;BME280;51139;45.626;6.850;2023-05-19T07:57:01;81937.56;;;6.96;100.00
64711;BME280;51139;45.626;6.850;2023-05-19T07:59:26;81942.59;;;6.53;100.00
64711;BME280;51139;45.626;6.850;2023-05-19T08:01:52;81925.44;;;7.08;100.00
64711;BME280;51139;45.626;6.850;2023-05-19T08:04:17;81937.03;;;7.79;100.00
64711;BME280;51139;45.626;6.850;2023-05-19T08:06:42;81930.94;;;8.20;100.00
64711;BME280;51139;45.626;6.850;2023-05-19T08:09:09;81937.81;;;8.83;100.00
64711;BME280;51139;45.626;6.850;2023-05-19T08:11:34;81934.25;;;9.06;100.00
64711;BME280;51139;45.626;6.850;2023-05-19T08:14:00;81932.53;;;9.01;100.00
64711;BME280;51139;45.626;6.850;2023-05-19T08:16:26;81926.94;;;9.14;100.00
64711;BME280;51139;45.626;6.850;2023-05-19T08:18:51;81928.78;;;9.39;100.00
64711;BME280;51139;45.626;6.850;2023-05-19T08:21:17;81927.63;;;8.62;100.00
64711;BME280;51139;45.626;6.850;2023-05-19T08:23:42;81928.25;;;9.23;100.00
64711;BME280;51139;45.626;6.850;2023-05-19T08:26:08;81929.63;;;7.78;100.00
64711;BME280;51139;45.626;6.850;2023-05-19T08:28:33;81924.69;;;7.56;100.00
64711;BME280;51139;45.626;6.850;2023-05-19T08:30:58;81924.22;;;7.01;100.00
64711;BME280;51139;45.626;6.850;2023-05-19T08:33:24;81927.34;;;7.15;100.00
64711;BME280;51139;45.626;6.850;2023-05-19T08:35:49;81918.38;;;7.11;100.00
64711;BME280;51139;45.626;6.850;2023-05-19T08:38:15;81920.31;;;7.77;100.00
64711;BME280;51139;45.626;6.850;2023-05-19T08:40:41;81921.88;;;7.80;100.00
64711;BME280;51139;45.626;6.850;2023-05-19T08:43:07;81912.59;;;8.04;100.00
64711;BME280;51139;45.626;6.850;2023-05-19T08:45:32;81917.16;;;8.03;100.00
64711;BME280;51139;45.626;6.850;2023-05-19T08:48:03;81915.69;;;8.10;100.00
64711;BME280;51139;45.626;6.850;2023-05-19T08:50:30;81919.91;;;8.13;100.00
64711;BME280;51139;45.626;6.850;2023-05-19T08:53:12;81916.59;;;8.56;100.00
64711;BME280;51139;45.626;6.850;2023-05-19T08:55:49;81914.28;;;8.78;100.00
64711;BME280;51139;45.626;6.850;2023-05-19T08:58:20;81915.03;;;9.05;100.00
64711;BME280;51139;45.626;6.850;2023-05-19T09:00:47;81913.44;;;7.81;100.00
64711;BME280;51139;45.626;6.850;2023-05-19T09:03:12;81924.50;;;7.54;100.00
64711;BME280;51139;45.626;6.850;2023-05-19T09:05:41;81919.50;;;7.99;100.00
64711;BME280;51139;45.626;6.850;2023-05-19T09:08:07;81919.97;;;8.06;100.00
64711;BME280;51139;45.626;6.850;2023-05-19T09:10:32;81916.72;;;8.15;100.00
64711;BME280;51139;45.626;6.850;2023-05-19T09:12:58;81908.78;;;8.40;100.00
64711;BME280;51139;45.626;6.850;2023-05-19T09:15:25;81913.06;;;7.59;100.00
64711;BME280;51139;45.626;6.850;2023-05-19T09:18:04;81915.25;;;8.22;100.00
64711;BME280;51139;45.626;6.850;2023-05-19T09:20:30;81911.78;;;8.62;98.53
64711;BME280;51139;45.626;6.850;2023-05-19T09:22:55;81916.38;;;8.79;96.70
64711;BME280;51139;45.626;6.850;2023-05-19T09:25:24;81904.34;;;8.68;93.24
64711;BME280;51139;45.626;6.850;2023-05-19T09:27:52;81904.94;;;9.12;84.34
64711;BME280;51139;45.626;6.850;2023-05-19T09:30:18;81908.53;;;9.07;100.00
64711;BME280;51139;45.626;6.850;2023-05-19T09:32:44;81905.50;;;9.10;84.27
64711;BME280;51139;45.626;6.850;2023-05-19T09:35:11;81907.88;;;8.45;91.47
64711;BME280;51139;45.626;6.850;2023-05-19T09:37:40;81915.78;;;8.88;100.00
64711;BME280;51139;45.626;6.850;2023-05-19T09:40:09;81915.53;;;9.84;100.00
64711;BME280;51139;45.626;6.850;2023-05-19T09:42:38;81901.19;;;9.32;100.00
64711;BME280;51139;45.626;6.850;2023-05-19T09:45:05;81908.31;;;9.57;100.00
64711;BME280;51139;45.626;6.850;2023-05-19T09:47:35;81908.66;;;9.09;100.00
64711;BME280;51139;45.626;6.850;2023-05-19T09:50:03;81924.38;;;9.07;100.00
64711;BME280;51139;45.626;6.850;2023-05-19T09:52:29;81911.84;;;9.25;100.00
64711;BME280;51139;45.626;6.850;2023-05-19T09:54:55;81913.38;;;9.45;100.00
64711;BME280;51139;45.626;6.850;2023-05-19T09:57:25;81919.44;;;9.83;100.00
64711;BME280;51139;45.626;6.850;2023-05-19T09:59:53;81907.41;;;9.72;100.00
64711;BME280;51139;45.626;6.850;2023-05-19T10:02:21;81917.38;;;8.84;100.00
64711;BME280;51139;45.626;6.850;2023-05-19T10:04:51;81915.25;;;9.35;100.00
64711;BME280;51139;45.626;6.850;2023-05-19T10:07:18;81913.28;;;9.53;100.00
64711;BME280;51139;45.626;6.850;2023-05-19T10:09:43;81910.44;;;9.69;99.55
64711;BME280;51139;45.626;6.850;2023-05-19T10:12:10;81908.69;;;8.73;88.56
64711;BME280;51139;45.626;6.850;2023-05-19T10:14:36;81904.16;;;9.37;85.78
64711;BME280;51139;45.626;6.850;2023-05-19T10:17:02;81912.56;;;8.90;87.21
64711;BME280;51139;45.626;6.850;2023-05-19T10:19:28;81907.09;;;8.10;91.42
64711;BME280;51139;45.626;6.850;2023-05-19T10:21:54;81894.44;;;8.08;91.56
64711;BME280;51139;45.626;6.850;2023-05-19T10:24:20;81904.31;;;8.51;90.82
64711;BME280;51139;45.626;6.850;2023-05-19T10:26:54;81898.56;;;8.44;85.04
64711;BME280;51139;45.626;6.850;2023-05-19T10:29:24;81904.91;;;8.84;87.41
64711;BME280;51139;45.626;6.850;2023-05-19T10:31:52;81912.22;;;9.39;82.72
64711;BME280;51139;45.626;6.850;2023-05-19T10:34:45;81903.25;;;9.07;83.33
64711;BME280;51139;45.626;6.850;2023-05-19T10:37:47;81893.78;;;8.68;86.36
64711;BME280;51139;45.626;6.850;2023-05-19T10:40:26;81897.41;;;8.73;83.27
64711;BME280;51139;45.626;6.850;2023-05-19T10:43:01;81905.41;;;8.22;81.83
64711;BME280;51139;45.626;6.850;2023-05-19T10:45:35;81904.09;;;8.74;80.09
64711;BME280;51139;45.626;6.850;2023-05-19T10:48:09;81902.75;;;8.47;80.96
64711;BME280;51139;45.626;6.850;2023-05-19T10:50:35;81896.19;;;8.31;85.18
64711;BME280;51139;45.626;6.850;2023-05-19T10:53:01;81910.00;;;9.00;85.33
64711;BME280;51139;45.626;6.850;2023-05-19T10:55:50;81898.88;;;9.37;83.49
64711;BME280;51139;45.626;6.850;2023-05-19T11:01:19;81892.97;;;9.28;78.83
64711;BME280;51139;45.626;6.850;2023-05-19T11:03:53;81896.72;;;9.08;79.87
64711;BME280;51139;45.626;6.850;2023-05-19T11:06:28;81897.88;;;9.59;76.78
64711;BME280;51139;45.626;6.850;2023-05-19T11:08:57;81896.47;;;9.58;79.78
64711;BME280;51139;45.626;6.850;2023-05-19T11:11:23;81900.41;;;9.67;76.83
64711;BME280;51139;45.626;6.850;2023-05-19T11:13:54;81890.22;;;8.73;78.99
64711;BME280;51139;45.626;6.850;2023-05-19T11:16:33;81901.81;;;9.23;78.33
64711;BME280;51139;45.626;6.850;2023-05-19T11:18:59;81903.06;;;9.22;81.13
64711;BME280;51139;45.626;6.850;2023-05-19T11:21:40;81893.72;;;9.39;81.31
64711;BME280;51139;45.626;6.850;2023-05-19T11:24:07;81890.88;;;8.74;79.69
64711;BME280;51139;45.626;6.850;2023-05-19T11:26:40;81886.91;;;8.05;82.32
64711;BME280;51139;45.626;6.850;2023-05-19T11:29:09;81888.72;;;8.20;81.79
64711;BME280;51139;45.626;6.850;2023-05-19T11:31:34;81894.56;;;8.79;79.91
64711;BME280;51139;45.626;6.850;2023-05-19T11:34:00;81886.69;;;8.53;79.52
64711;BME280;51139;45.626;6.850;2023-05-19T11:36:27;81878.09;;;8.53;75.78
64711;BME280;51139;45.626;6.850;2023-05-19T11:38:53;81883.59;;;8.82;75.39
64711;BME280;51139;45.626;6.850;2023-05-19T11:41:18;81881.44;;;8.28;75.00
64711;BME280;51139;45.626;6.850;2023-05-19T11:43:46;81874.53;;;8.32;76.96
64711;BME280;51139;45.626;6.850;2023-05-19T11:46:12;81877.16;;;8.75;73.79
64711;BME280;51139;45.626;6.850;2023-05-19T11:48:38;81878.59;;;8.33;75.32
64711;BME280;51139;45.626;6.850;2023-05-19T11:51:05;81880.97;;;9.27;72.50
64711;BME280;51139;45.626;6.850;2023-05-19T11:53:31;81876.84;;;8.89;70.13
64711;BME280;51139;45.626;6.850;2023-05-19T11:56:02;81885.44;;;9.25;72.53
64711;BME280;51139;45.626;6.850;2023-05-19T11:58:27;81883.53;;;9.35;69.70
64711;BME280;51139;45.626;6.850;2023-05-19T12:00:53;81883.31;;;9.23;70.42
64711;BME280;51139;45.626;6.850;2023-05-19T12:03:20;81885.06;;;8.75;73.68
64711;BME280;51139;45.626;6.850;2023-05-19T12:05:47;81877.41;;;9.15;71.89
64711;BME280;51139;45.626;6.850;2023-05-19T12:08:12;81868.59;;;8.85;72.17
64711;BME280;51139;45.626;6.850;2023-05-19T12:10:39;81883.19;;;9.48;72.41
64711;BME280;51139;45.626;6.850;2023-05-19T12:13:05;81887.84;;;9.13;75.03
64711;BME280;51139;45.626;6.850;2023-05-19T12:15:33;81883.34;;;9.51;72.31
64711;BME280;51139;45.626;6.850;2023-05-19T12:18:00;81882.56;;;9.30;72.72
64711;BME280;51139;45.626;6.850;2023-05-19T12:20:27;81874.09;;;8.79;71.33
64711;BME280;51139;45.626;6.850;2023-05-19T12:22:57;81875.59;;;8.55;75.78
64711;BME280;51139;45.626;6.850;2023-05-19T12:25:23;81876.19;;;9.16;74.28
64711;BME280;51139;45.626;6.850;2023-05-19T12:27:49;81875.44;;;8.88;72.67
64711;BME280;51139;45.626;6.850;2023-05-19T12:30:17;81880.19;;;8.89;70.57
64711;BME280;51139;45.626;6.850;2023-05-19T12:32:45;81876.63;;;9.22;69.30
64711;BME280;51139;45.626;6.850;2023-05-19T12:35:11;81869.28;;;9.48;65.70
64711;BME280;51139;45.626;6.850;2023-05-19T12:37:40;81867.88;;;9.47;65.53
64711;BME280;51139;45.626;6.850;2023-05-19T12:40:06;81877.25;;;9.30;67.58
64711;BME280;51139;45.626;6.850;2023-05-19T12:42:31;81883.16;;;9.21;71.91
64711;BME280;51139;45.626;6.850;2023-05-19T12:44:59;81874.94;;;9.99;64.50
64711;BME280;51139;45.626;6.850;2023-05-19T12:47:34;81877.56;;;9.62;64.66
64711;BME280;51139;45.626;6.850;2023-05-19T12:50:07;81870.31;;;9.90;64.01
64711;BME280;51139;45.626;6.850;2023-05-19T12:52:48;81866.66;;;9.48;65.51
64711;BME280;51139;45.626;6.850;2023-05-19T12:55:16;81866.44;;;9.63;68.88
64711;BME280;51139;45.626;6.850;2023-05-19T12:57:49;81868.94;;;9.34;67.79
64711;BME280;51139;45.626;6.850;2023-05-19T13:00:24;81871.59;;;9.16;71.11
64711;BME280;51139;45.626;6.850;2023-05-19T13:02:56;81867.72;;;9.17;66.10
64711;BME280;51139;45.626;6.850;2023-05-19T13:05:21;81870.28;;;9.53;71.74
64711;BME280;51139;45.626;6.850;2023-05-19T13:07:57;81856.81;;;10.33;65.67
64711;BME280;51139;45.626;6.850;2023-05-19T13:10:23;81855.94;;;9.83;62.71
64711;BME280;51139;45.626;6.850;2023-05-19T13:12:52;81866.06;;;10.04;62.38
64711;BME280;51139;45.626;6.850;2023-05-19T13:15:18;81858.00;;;9.75;64.67
64711;BME280;51139;45.626;6.850;2023-05-19T13:17:43;81852.19;;;9.49;64.84
64711;BME280;51139;45.626;6.850;2023-05-19T13:20:11;81850.34;;;9.42;64.54
64711;BME280;51139;45.626;6.850;2023-05-19T13:22:36;81851.44;;;9.21;65.40
64711;BME280;51139;45.626;6.850;2023-05-19T13:25:02;81855.13;;;9.90;64.90
64711;BME280;51139;45.626;6.850;2023-05-19T13:27:27;81849.72;;;9.61;62.17
64711;BME280;51139;45.626;6.850;2023-05-19T13:29:53;81857.03;;;10.17;63.18
64711;BME280;51139;45.626;6.850;2023-05-19T13:32:18;81856.91;;;9.78;63.49
64711;BME280;51139;45.626;6.850;2023-05-19T13:34:43;81851.81;;;9.62;61.43
64711;BME280;51139;45.626;6.850;2023-05-19T13:37:09;81856.38;;;9.89;63.20
64711;BME280;51139;45.626;6.850;2023-05-19T13:39:35;81848.88;;;9.96;60.63
64711;BME280;51139;45.626;6.850;2023-05-19T13:42:01;81837.91;;;9.34;61.85
64711;BME280;51139;45.626;6.850;2023-05-19T13:44:27;81852.75;;;10.32;61.54
64711;BME280;51139;45.626;6.850;2023-05-19T13:46:52;81848.59;;;9.54;63.85
64711;BME280;51139;45.626;6.850;2023-05-19T13:49:17;81858.31;;;10.16;61.60
64711;BME280;51139;45.626;6.850;2023-05-19T13:51:43;81853.59;;;10.25;59.15
64711;BME280;51139;45.626;6.850;2023-05-19T13:54:09;81852.09;;;10.51;57.85
64711;BME280;51139;45.626;6.850;2023-05-19T13:56:34;81847.34;;;10.40;59.32
64711;BME280;51139;45.626;6.850;2023-05-19T13:59:00;81853.72;;;10.27;60.96
64711;BME280;51139;45.626;6.850;2023-05-19T14:01:25;81850.44;;;10.46;60.58
64711;BME280;51139;45.626;6.850;2023-05-19T14:03:51;81844.88;;;10.04;57.83
64711;BME280;51139;45.626;6.850;2023-05-19T14:06:16;81841.97;;;10.10;58.51
64711;BME280;51139;45.626;6.850;2023-05-19T14:08:41;81842.81;;;10.13;59.07
64711;BME280;51139;45.626;6.850;2023-05-19T14:11:07;81847.41;;;10.12;61.18
64711;BME280;51139;45.626;6.850;2023-05-19T14:13:32;81842.03;;;9.28;64.86
64711;BME280;51139;45.626;6.850;2023-05-19T14:15:58;81837.03;;;9.04;68.31
64711;BME280;51139;45.626;6.850;2023-05-19T14:18:23;81836.53;;;8.88;70.09
64711;BME280;51139;45.626;6.850;2023-05-19T14:20:49;81825.50;;;8.65;72.21
64711;BME280;51139;45.626;6.850;2023-05-19T14:23:14;81834.97;;;9.30;72.69
64711;BME280;51139;45.626;6.850;2023-05-19T14:25:41;81832.94;;;8.94;72.38
64711;BME280;51139;45.626;6.850;2023-05-19T14:28:06;81843.09;;;9.70;67.69
64711;BME280;51139;45.626;6.850;2023-05-19T14:30:32;81835.53;;;9.66;69.47
64711;BME280;51139;45.626;6.850;2023-05-19T14:32:58;81839.91;;;9.44;69.14
64711;BME280;51139;45.626;6.850;2023-05-19T14:35:23;81830.72;;;9.45;69.13
64711;BME280;51139;45.626;6.850;2023-05-19T14:37:49;81834.25;;;9.30;69.61
64711;BME280;51139;45.626;6.850;2023-05-19T14:40:15;81843.25;;;9.44;70.33
64711;BME280;51139;45.626;6.850;2023-05-19T14:42:40;81832.81;;;9.19;72.32
64711;BME280;51139;45.626;6.850;2023-05-19T14:45:06;81834.56;;;9.61;68.78
64711;BME280;51139;45.626;6.850;2023-05-19T14:47:32;81842.13;;;9.47;68.25
64711;BME280;51139;45.626;6.850;2023-05-19T14:49:57;81832.13;;;9.46;70.53
64711;BME280;51139;45.626;6.850;2023-05-19T14:52:22;81842.63;;;9.36;70.56
64711;BME280;51139;45.626;6.850;2023-05-19T14:54:48;81830.63;;;8.80;73.19
64711;BME280;51139;45.626;6.850;2023-05-19T14:57:13;81837.47;;;9.11;73.72
64711;BME280;51139;45.626;6.850;2023-05-19T14:59:38;81835.72;;;8.43;77.13
64711;BME280;51139;45.626;6.850;2023-05-19T15:02:04;81831.56;;;9.20;71.21